sensor_id;sensor_type;location;lat;lon;timestamp;P1;durP1;ratioP1;P2;durP2;ratioP2
57341;SDS011;43175;51.002;18.316;2022-11-04T00:01:15;29.60;;;13.90;;
57341;SDS011;43175;51.002;18.316;2022-11-04T00:03:40;26.90;;;12.40;;
57341;SDS011;43175;51.002;18.316;2022-11-04T00:06:06;28.00;;;13.20;;
57341;SDS011;43175;51.002;18.316;2022-11-04T00:08:32;24.20;;;12.40;;
57341;SDS011;43175;51.002;18.316;2022-11-04T00:10:58;25.60;;;12.30;;
57341;SDS011;43175;51.002;18.316;2022-11-04T00:13:43;27.50;;;12.60;;
57341;SDS011;43175;51.002;18.316;2022-11-04T00:16:08;24.50;;;11.60;;
57341;SDS011;43175;51.002;18.316;2022-11-04T00:18:53;22.30;;;11.80;;
57341;SDS011;43175;51.002;18.316;2022-11-04T00:21:18;25.00;;;12.40;;
57341;SDS011;43175;51.002;18.316;2022-11-04T00:24:03;25.60;;;12.70;;
57341;SDS011;43175;51.002;18.316;2022-11-04T00:26:47;23.70;;;11.80;;
57341;SDS011;43175;51.002;18.316;2022-11-04T00:29:34;24.70;;;11.70;;
57341;SDS011;43175;51.002;18.316;2022-11-04T00:31:59;24.60;;;12.20;;
57341;SDS011;43175;51.002;18.316;2022-11-04T00:34:43;24.20;;;11.80;;
57341;SDS011;43175;51.002;18.316;2022-11-04T00:37:08;23.50;;;11.40;;
57341;SDS011;43175;51.002;18.316;2022-11-04T00:39:34;22.00;;;11.20;;
57341;SDS011;43175;51.002;18.316;2022-11-04T00:41:59;23.20;;;11.20;;
57341;SDS011;43175;51.002;18.316;2022-11-04T00:44:25;22.50;;;11.20;;
57341;SDS011;43175;51.002;18.316;2022-11-04T00:46:50;24.10;;;11.70;;
57341;SDS011;43175;51.002;18.316;2022-11-04T00:49:15;22.90;;;11.80;;
57341;SDS011;43175;51.002;18.316;2022-11-04T00:51:41;21.80;;;11.20;;
57341;SDS011;43175;51.002;18.316;2022-11-04T00:54:06;23.70;;;11.50;;
57341;SDS011;43175;51.002;18.316;2022-11-04T00:56:32;58.30;;;33.50;;
57341;SDS011;43175;51.002;18.316;2022-11-04T00:58:58;33.10;;;17.90;;
57341;SDS011;43175;51.002;18.316;2022-11-04T01:01:24;23.90;;;13.50;;
57341;SDS011;43175;51.002;18.316;2022-11-04T01:03:50;21.60;;;11.30;;
57341;SDS011;43175;51.002;18.316;2022-11-04T01:06:17;23.70;;;11.00;;
57341;SDS011;43175;51.002;18.316;2022-11-04T01:08:44;22.00;;;11.20;;
57341;SDS011;43175;51.002;18.316;2022-11-04T01:11:10;22.90;;;11.60;;
57341;SDS011;43175;51.002;18.316;2022-11-04T01:13:36;26.90;;;11.40;;
57341;SDS011;43175;51.002;18.316;2022-11-04T01:16:03;21.50;;;11.00;;
57341;SDS011;43175;51.002;18.316;2022-11-04T01:18:31;23.10;;;11.30;;
57341;SDS011;43175;51.002;18.316;2022-11-04T01:21:00;24.90;;;10.90;;
57341;SDS011;43175;51.002;18.316;2022-11-04T01:23:26;21.30;;;10.30;;
57341;SDS011;43175;51.002;18.316;2022-11-04T01:25:52;20.80;;;10.10;;
57341;SDS011;43175;51.002;18.316;2022-11-04T01:28:17;23.50;;;10.90;;
57341;SDS011;43175;51.002;18.316;2022-11-04T01:30:43;21.00;;;10.90;;
57341;SDS011;43175;51.002;18.316;2022-11-04T01:33:08;21.20;;;10.40;;
57341;SDS011;43175;51.002;18.316;2022-11-04T01:35:34;23.50;;;11.10;;
57341;SDS011;43175;51.002;18.316;2022-11-04T01:37:59;20.60;;;10.40;;
57341;SDS011;43175;51.002;18.316;2022-11-04T01:40:25;21.40;;;10.30;;
57341;SDS011;43175;51.002;18.316;2022-11-04T01:42:50;23.20;;;11.00;;
57341;SDS011;43175;51.002;18.316;2022-11-04T01:45:17;21.20;;;10.80;;
57341;SDS011;43175;51.002;18.316;2022-11-04T01:50:23;21.50;;;10.70;;
57341;SDS011;43175;51.002;18.316;2022-11-04T01:52:55;22.20;;;11.40;;
57341;SDS011;43175;51.002;18.316;2022-11-04T01:55:26;21.40;;;11.00;;
57341;SDS011;43175;51.002;18.316;2022-11-04T01:57:54;23.60;;;11.60;;
57341;SDS011;43175;51.002;18.316;2022-11-04T02:00:22;21.20;;;10.80;;
57341;SDS011;43175;51.002;18.316;2022-11-04T02:02:52;21.80;;;11.70;;
57341;SDS011;43175;51.002;18.316;2022-11-04T02:05:20;21.80;;;11.00;;
57341;SDS011;43175;51.002;18.316;2022-11-04T02:07:48;23.10;;;12.00;;
57341;SDS011;43175;51.002;18.316;2022-11-04T02:10:16;23.40;;;11.50;;
57341;SDS011;43175;51.002;18.316;2022-11-04T02:12:43;23.20;;;11.40;;
57341;SDS011;43175;51.002;18.316;2022-11-04T02:15:16;22.40;;;11.20;;
57341;SDS011;43175;51.002;18.316;2022-11-04T02:23:47;21.10;;;11.10;;
57341;SDS011;43175;51.002;18.316;2022-11-04T02:26:22;21.40;;;10.90;;
57341;SDS011;43175;51.002;18.316;2022-11-04T02:29:18;20.60;;;10.70;;
57341;SDS011;43175;51.002;18.316;2022-11-04T02:31:52;20.90;;;10.70;;
57341;SDS011;43175;51.002;18.316;2022-11-04T02:37:51;21.60;;;12.40;;
57341;SDS011;43175;51.002;18.316;2022-11-04T02:40:22;23.80;;;11.60;;
57341;SDS011;43175;51.002;18.316;2022-11-04T02:43:01;22.40;;;11.00;;
57341;SDS011;43175;51.002;18.316;2022-11-04T02:45:34;24.10;;;12.70;;
57341;SDS011;43175;51.002;18.316;2022-11-04T02:48:19;20.50;;;11.40;;
57341;SDS011;43175;51.002;18.316;2022-11-04T02:50:58;20.90;;;10.90;;
57341;SDS011;43175;51.002;18.316;2022-11-04T02:53:44;22.50;;;11.30;;
57341;SDS011;43175;51.002;18.316;2022-11-04T02:56:12;22.10;;;10.80;;
57341;SDS011;43175;51.002;18.316;2022-11-04T02:58:40;24.20;;;11.40;;
57341;SDS011;43175;51.002;18.316;2022-11-04T03:01:10;21.00;;;10.70;;
57341;SDS011;43175;51.002;18.316;2022-11-04T03:03:38;21.80;;;11.30;;
57341;SDS011;43175;51.002;18.316;2022-11-04T03:06:07;22.40;;;11.30;;
57341;SDS011;43175;51.002;18.316;2022-11-04T03:08:35;21.40;;;10.70;;
57341;SDS011;43175;51.002;18.316;2022-11-04T03:11:11;23.10;;;11.00;;
57341;SDS011;43175;51.002;18.316;2022-11-04T03:13:51;22.00;;;10.50;;
57341;SDS011;43175;51.002;18.316;2022-11-04T03:16:21;22.00;;;11.10;;
57341;SDS011;43175;51.002;18.316;2022-11-04T03:19:06;22.80;;;11.60;;
57341;SDS011;43175;51.002;18.316;2022-11-04T03:21:37;22.50;;;11.10;;
57341;SDS011;43175;51.002;18.316;2022-11-04T03:24:06;20.50;;;10.80;;
57341;SDS011;43175;51.002;18.316;2022-11-04T03:27:15;21.40;;;11.40;;
57341;SDS011;43175;51.002;18.316;2022-11-04T03:29:34;23.00;;;11.10;;
57341;SDS011;43175;51.002;18.316;2022-11-04T03:34:45;20.80;;;11.20;;
57341;SDS011;43175;51.002;18.316;2022-11-04T03:37:11;21.70;;;11.00;;
57341;SDS011;43175;51.002;18.316;2022-11-04T03:39:37;22.30;;;11.90;;
57341;SDS011;43175;51.002;18.316;2022-11-04T03:42:03;21.30;;;11.70;;
57341;SDS011;43175;51.002;18.316;2022-11-04T03:44:46;23.80;;;11.90;;
57341;SDS011;43175;51.002;18.316;2022-11-04T03:47:12;22.90;;;11.50;;
57341;SDS011;43175;51.002;18.316;2022-11-04T03:49:38;21.30;;;11.80;;
57341;SDS011;43175;51.002;18.316;2022-11-04T03:52:03;22.40;;;12.90;;
57341;SDS011;43175;51.002;18.316;2022-11-04T03:54:29;24.40;;;12.70;;
57341;SDS011;43175;51.002;18.316;2022-11-04T03:57:04;22.30;;;12.30;;
57341;SDS011;43175;51.002;18.316;2022-11-04T04:05:29;36.90;;;17.10;;
57341;SDS011;43175;51.002;18.316;2022-11-04T04:11:03;30.40;;;14.50;;
57341;SDS011;43175;51.002;18.316;2022-11-04T04:16:17;24.80;;;11.50;;
57341;SDS011;43175;51.002;18.316;2022-11-04T04:18:51;24.20;;;11.70;;
57341;SDS011;43175;51.002;18.316;2022-11-04T04:21:24;21.10;;;11.00;;
57341;SDS011;43175;51.002;18.316;2022-11-04T04:23:52;26.40;;;11.10;;
57341;SDS011;43175;51.002;18.316;2022-11-04T04:26:38;22.20;;;10.90;;
57341;SDS011;43175;51.002;18.316;2022-11-04T04:29:23;20.00;;;10.60;;
57341;SDS011;43175;51.002;18.316;2022-11-04T04:31:50;22.50;;;11.30;;
57341;SDS011;43175;51.002;18.316;2022-11-04T04:34:23;25.20;;;12.00;;
57341;SDS011;43175;51.002;18.316;2022-11-04T04:36:55;20.30;;;11.40;;
57341;SDS011;43175;51.002;18.316;2022-11-04T04:39:28;24.10;;;11.90;;
57341;SDS011;43175;51.002;18.316;2022-11-04T04:42:15;22.60;;;11.70;;
57341;SDS011;43175;51.002;18.316;2022-11-04T04:45:01;24.30;;;11.80;;
57341;SDS011;43175;51.002;18.316;2022-11-04T04:47:30;21.40;;;10.20;;
57341;SDS011;43175;51.002;18.316;2022-11-04T04:50:04;23.10;;;11.80;;
57341;SDS011;43175;51.002;18.316;2022-11-04T04:52:31;21.50;;;10.30;;
57341;SDS011;43175;51.002;18.316;2022-11-04T04:54:58;22.50;;;11.10;;
57341;SDS011;43175;51.002;18.316;2022-11-04T04:57:24;21.00;;;10.80;;
57341;SDS011;43175;51.002;18.316;2022-11-04T04:59:50;22.10;;;11.00;;
57341;SDS011;43175;51.002;18.316;2022-11-04T05:02:15;22.20;;;11.30;;
57341;SDS011;43175;51.002;18.316;2022-11-04T05:04:41;23.00;;;11.80;;
57341;SDS011;43175;51.002;18.316;2022-11-04T05:07:06;20.90;;;10.50;;
57341;SDS011;43175;51.002;18.316;2022-11-04T05:09:34;19.60;;;10.00;;
57341;SDS011;43175;51.002;18.316;2022-11-04T05:12:00;21.70;;;11.20;;
57341;SDS011;43175;51.002;18.316;2022-11-04T05:14:25;19.80;;;10.50;;
57341;SDS011;43175;51.002;18.316;2022-11-04T05:16:51;19.20;;;9.90;;
57341;SDS011;43175;51.002;18.316;2022-11-04T05:19:16;19.30;;;9.80;;
57341;SDS011;43175;51.002;18.316;2022-11-04T05:21:41;20.50;;;10.10;;
57341;SDS011;43175;51.002;18.316;2022-11-04T05:24:07;19.20;;;9.20;;
57341;SDS011;43175;51.002;18.316;2022-11-04T05:26:32;21.30;;;9.80;;
57341;SDS011;43175;51.002;18.316;2022-11-04T05:28:58;19.40;;;9.40;;
57341;SDS011;43175;51.002;18.316;2022-11-04T05:31:23;17.80;;;9.30;;
57341;SDS011;43175;51.002;18.316;2022-11-04T05:33:49;17.80;;;8.90;;
57341;SDS011;43175;51.002;18.316;2022-11-04T05:36:15;18.10;;;9.40;;
57341;SDS011;43175;51.002;18.316;2022-11-04T05:38:41;19.80;;;9.10;;
57341;SDS011;43175;51.002;18.316;2022-11-04T05:41:08;18.60;;;9.70;;
57341;SDS011;43175;51.002;18.316;2022-11-04T05:43:35;19.90;;;9.80;;
57341;SDS011;43175;51.002;18.316;2022-11-04T05:46:01;20.50;;;9.70;;
57341;SDS011;43175;51.002;18.316;2022-11-04T05:48:27;18.20;;;9.50;;
57341;SDS011;43175;51.002;18.316;2022-11-04T05:50:53;20.90;;;9.80;;
57341;SDS011;43175;51.002;18.316;2022-11-04T05:53:19;19.10;;;9.40;;
57341;SDS011;43175;51.002;18.316;2022-11-04T05:55:44;19.90;;;9.60;;
57341;SDS011;43175;51.002;18.316;2022-11-04T05:58:09;20.10;;;9.60;;
57341;SDS011;43175;51.002;18.316;2022-11-04T06:00:35;17.40;;;9.60;;
57341;SDS011;43175;51.002;18.316;2022-11-04T06:03:00;19.20;;;9.50;;
57341;SDS011;43175;51.002;18.316;2022-11-04T06:05:26;19.30;;;9.30;;
57341;SDS011;43175;51.002;18.316;2022-11-04T06:07:52;18.20;;;9.30;;
57341;SDS011;43175;51.002;18.316;2022-11-04T06:10:18;18.00;;;10.00;;
57341;SDS011;43175;51.002;18.316;2022-11-04T06:12:44;21.70;;;9.70;;
57341;SDS011;43175;51.002;18.316;2022-11-04T06:15:09;19.10;;;10.00;;
57341;SDS011;43175;51.002;18.316;2022-11-04T06:17:35;19.30;;;9.60;;
57341;SDS011;43175;51.002;18.316;2022-11-04T06:20:01;21.00;;;10.00;;
57341;SDS011;43175;51.002;18.316;2022-11-04T06:22:26;19.20;;;9.30;;
57341;SDS011;43175;51.002;18.316;2022-11-04T06:24:51;18.90;;;9.60;;
57341;SDS011;43175;51.002;18.316;2022-11-04T06:27:17;18.70;;;9.70;;
57341;SDS011;43175;51.002;18.316;2022-11-04T06:29:42;23.50;;;10.20;;
57341;SDS011;43175;51.002;18.316;2022-11-04T06:32:09;20.40;;;9.70;;
57341;SDS011;43175;51.002;18.316;2022-11-04T06:34:38;18.20;;;10.00;;
57341;SDS011;43175;51.002;18.316;2022-11-04T06:37:04;20.60;;;10.10;;
57341;SDS011;43175;51.002;18.316;2022-11-04T06:39:29;21.80;;;10.50;;
57341;SDS011;43175;51.002;18.316;2022-11-04T06:41:55;21.60;;;10.50;;
57341;SDS011;43175;51.002;18.316;2022-11-04T06:44:20;18.90;;;9.90;;
57341;SDS011;43175;51.002;18.316;2022-11-04T06:46:46;20.00;;;10.50;;
57341;SDS011;43175;51.002;18.316;2022-11-04T06:49:12;22.30;;;9.60;;
57341;SDS011;43175;51.002;18.316;2022-11-04T06:51:42;19.10;;;9.80;;
57341;SDS011;43175;51.002;18.316;2022-11-04T06:54:09;21.20;;;10.30;;
57341;SDS011;43175;51.002;18.316;2022-11-04T06:56:35;21.30;;;9.80;;
57341;SDS011;43175;51.002;18.316;2022-11-04T06:59:00;22.90;;;10.10;;
57341;SDS011;43175;51.002;18.316;2022-11-04T07:01:27;20.10;;;10.20;;
57341;SDS011;43175;51.002;18.316;2022-11-04T07:03:57;18.80;;;9.40;;
57341;SDS011;43175;51.002;18.316;2022-11-04T07:06:24;23.30;;;10.10;;
57341;SDS011;43175;51.002;18.316;2022-11-04T07:08:50;19.40;;;9.90;;
57341;SDS011;43175;51.002;18.316;2022-11-04T07:11:17;18.70;;;9.60;;
57341;SDS011;43175;51.002;18.316;2022-11-04T07:13:45;20.80;;;9.80;;
57341;SDS011;43175;51.002;18.316;2022-11-04T07:16:11;21.90;;;10.40;;
57341;SDS011;43175;51.002;18.316;2022-11-04T07:18:37;20.10;;;9.70;;
57341;SDS011;43175;51.002;18.316;2022-11-04T07:21:03;19.10;;;9.60;;
57341;SDS011;43175;51.002;18.316;2022-11-04T07:23:29;18.10;;;9.50;;
57341;SDS011;43175;51.002;18.316;2022-11-04T07:25:58;20.30;;;9.60;;
57341;SDS011;43175;51.002;18.316;2022-11-04T07:28:28;20.90;;;9.70;;
57341;SDS011;43175;51.002;18.316;2022-11-04T07:30:57;19.50;;;9.80;;
57341;SDS011;43175;51.002;18.316;2022-11-04T07:33:24;20.60;;;9.60;;
57341;SDS011;43175;51.002;18.316;2022-11-04T07:35:50;21.30;;;9.90;;
57341;SDS011;43175;51.002;18.316;2022-11-04T07:38:17;20.70;;;10.30;;
57341;SDS011;43175;51.002;18.316;2022-11-04T07:40:43;18.30;;;9.00;;
57341;SDS011;43175;51.002;18.316;2022-11-04T07:43:09;21.20;;;9.60;;
57341;SDS011;43175;51.002;18.316;2022-11-04T07:45:34;18.90;;;9.50;;
57341;SDS011;43175;51.002;18.316;2022-11-04T07:48:00;18.80;;;9.10;;
57341;SDS011;43175;51.002;18.316;2022-11-04T07:50:25;18.80;;;9.20;;
57341;SDS011;43175;51.002;18.316;2022-11-04T07:52:51;17.60;;;9.40;;
57341;SDS011;43175;51.002;18.316;2022-11-04T07:55:17;19.80;;;9.50;;
57341;SDS011;43175;51.002;18.316;2022-11-04T07:57:46;19.10;;;9.30;;
57341;SDS011;43175;51.002;18.316;2022-11-04T08:00:12;20.80;;;9.40;;
57341;SDS011;43175;51.002;18.316;2022-11-04T08:02:41;17.60;;;9.10;;
57341;SDS011;43175;51.002;18.316;2022-11-04T08:05:09;18.70;;;9.00;;
57341;SDS011;43175;51.002;18.316;2022-11-04T08:07:34;17.80;;;9.40;;
57341;SDS011;43175;51.002;18.316;2022-11-04T08:10:00;18.50;;;9.00;;
57341;SDS011;43175;51.002;18.316;2022-11-04T08:12:26;18.30;;;8.90;;
57341;SDS011;43175;51.002;18.316;2022-11-04T08:14:52;17.80;;;8.60;;
57341;SDS011;43175;51.002;18.316;2022-11-04T08:17:17;16.70;;;8.90;;
57341;SDS011;43175;51.002;18.316;2022-11-04T08:19:43;17.20;;;8.00;;
57341;SDS011;43175;51.002;18.316;2022-11-04T08:22:08;18.50;;;8.70;;
57341;SDS011;43175;51.002;18.316;2022-11-04T08:24:34;17.70;;;8.80;;
57341;SDS011;43175;51.002;18.316;2022-11-04T08:27:00;18.70;;;8.70;;
57341;SDS011;43175;51.002;18.316;2022-11-04T08:29:26;17.20;;;8.80;;
57341;SDS011;43175;51.002;18.316;2022-11-04T08:31:51;15.20;;;7.80;;
57341;SDS011;43175;51.002;18.316;2022-11-04T08:34:16;16.90;;;8.20;;
57341;SDS011;43175;51.002;18.316;2022-11-04T08:36:43;16.00;;;8.20;;
57341;SDS011;43175;51.002;18.316;2022-11-04T08:39:09;17.10;;;8.20;;
57341;SDS011;43175;51.002;18.316;2022-11-04T08:41:36;16.60;;;7.90;;
57341;SDS011;43175;51.002;18.316;2022-11-04T08:44:05;15.90;;;7.50;;
57341;SDS011;43175;51.002;18.316;2022-11-04T08:46:33;19.90;;;8.00;;
57341;SDS011;43175;51.002;18.316;2022-11-04T08:49:00;16.30;;;7.90;;
57341;SDS011;43175;51.002;18.316;2022-11-04T08:51:26;17.20;;;7.80;;
57341;SDS011;43175;51.002;18.316;2022-11-04T08:53:52;17.80;;;8.20;;
57341;SDS011;43175;51.002;18.316;2022-11-04T08:56:22;16.50;;;7.60;;
57341;SDS011;43175;51.002;18.316;2022-11-04T08:58:50;16.40;;;7.40;;
57341;SDS011;43175;51.002;18.316;2022-11-04T09:01:17;15.80;;;7.70;;
57341;SDS011;43175;51.002;18.316;2022-11-04T09:03:43;18.90;;;8.10;;
57341;SDS011;43175;51.002;18.316;2022-11-04T09:06:10;15.80;;;7.50;;
57341;SDS011;43175;51.002;18.316;2022-11-04T09:08:38;16.70;;;7.60;;
57341;SDS011;43175;51.002;18.316;2022-11-04T09:11:07;16.50;;;7.50;;
57341;SDS011;43175;51.002;18.316;2022-11-04T09:13:35;16.80;;;7.60;;
57341;SDS011;43175;51.002;18.316;2022-11-04T09:16:01;15.80;;;7.70;;
57341;SDS011;43175;51.002;18.316;2022-11-04T09:18:26;18.70;;;7.70;;
57341;SDS011;43175;51.002;18.316;2022-11-04T09:20:52;16.30;;;7.80;;
57341;SDS011;43175;51.002;18.316;2022-11-04T09:23:17;16.70;;;7.40;;
57341;SDS011;43175;51.002;18.316;2022-11-04T09:25:43;16.20;;;7.60;;
57341;SDS011;43175;51.002;18.316;2022-11-04T09:28:08;17.50;;;8.20;;
57341;SDS011;43175;51.002;18.316;2022-11-04T09:30:35;19.20;;;8.10;;
57341;SDS011;43175;51.002;18.316;2022-11-04T09:33:01;16.20;;;7.80;;
57341;SDS011;43175;51.002;18.316;2022-11-04T09:35:26;18.20;;;8.10;;
57341;SDS011;43175;51.002;18.316;2022-11-04T09:37:52;18.30;;;8.30;;
57341;SDS011;43175;51.002;18.316;2022-11-04T09:40:19;17.90;;;8.10;;
57341;SDS011;43175;51.002;18.316;2022-11-04T09:42:53;20.80;;;8.70;;
57341;SDS011;43175;51.002;18.316;2022-11-04T09:45:25;19.70;;;8.60;;
57341;SDS011;43175;51.002;18.316;2022-11-04T09:47:52;18.10;;;8.60;;
57341;SDS011;43175;51.002;18.316;2022-11-04T09:50:24;17.80;;;8.70;;
57341;SDS011;43175;51.002;18.316;2022-11-04T09:52:56;18.90;;;8.60;;
57341;SDS011;43175;51.002;18.316;2022-11-04T09:55:38;19.00;;;9.20;;
57341;SDS011;43175;51.002;18.316;2022-11-04T09:58:06;17.40;;;8.60;;
57341;SDS011;43175;51.002;18.316;2022-11-04T10:00:33;18.80;;;9.20;;
57341;SDS011;43175;51.002;18.316;2022-11-04T10:05:55;20.10;;;9.20;;
57341;SDS011;43175;51.002;18.316;2022-11-04T10:08:29;17.30;;;9.40;;
57341;SDS011;43175;51.002;18.316;2022-11-04T10:19:12;20.40;;;10.10;;
57341;SDS011;43175;51.002;18.316;2022-11-04T10:21:53;17.90;;;9.60;;
57341;SDS011;43175;51.002;18.316;2022-11-04T10:27:03;19.50;;;9.80;;
57341;SDS011;43175;51.002;18.316;2022-11-04T10:29:36;19.70;;;10.10;;
57341;SDS011;43175;51.002;18.316;2022-11-04T10:32:10;20.70;;;10.40;;
57341;SDS011;43175;51.002;18.316;2022-11-04T10:37:39;19.40;;;10.60;;
57341;SDS011;43175;51.002;18.316;2022-11-04T10:40:13;20.10;;;10.40;;
57341;SDS011;43175;51.002;18.316;2022-11-04T10:42:42;23.20;;;10.70;;
57341;SDS011;43175;51.002;18.316;2022-11-04T10:45:11;22.00;;;11.00;;
57341;SDS011;43175;51.002;18.316;2022-11-04T10:50:25;20.90;;;10.60;;
57341;SDS011;43175;51.002;18.316;2022-11-04T10:53:01;21.30;;;10.90;;
57341;SDS011;43175;51.002;18.316;2022-11-04T10:58:02;21.30;;;12.40;;
57341;SDS011;43175;51.002;18.316;2022-11-04T11:00:38;21.50;;;11.00;;
57341;SDS011;43175;51.002;18.316;2022-11-04T11:03:21;22.80;;;10.80;;
57341;SDS011;43175;51.002;18.316;2022-11-04T11:05:50;24.70;;;10.70;;
57341;SDS011;43175;51.002;18.316;2022-11-04T11:08:27;20.60;;;11.40;;
57341;SDS011;43175;51.002;18.316;2022-11-04T11:10:54;21.30;;;11.00;;
57341;SDS011;43175;51.002;18.316;2022-11-04T11:13:42;20.90;;;10.50;;
57341;SDS011;43175;51.002;18.316;2022-11-04T11:16:12;21.70;;;11.20;;
57341;SDS011;43175;51.002;18.316;2022-11-04T11:18:42;20.70;;;11.00;;
57341;SDS011;43175;51.002;18.316;2022-11-04T11:21:09;21.80;;;11.90;;
57341;SDS011;43175;51.002;18.316;2022-11-04T11:26:08;21.90;;;12.10;;
57341;SDS011;43175;51.002;18.316;2022-11-04T11:28:38;22.90;;;12.30;;
57341;SDS011;43175;51.002;18.316;2022-11-04T11:31:06;23.40;;;12.60;;
57341;SDS011;43175;51.002;18.316;2022-11-04T11:33:48;25.50;;;12.50;;
57341;SDS011;43175;51.002;18.316;2022-11-04T11:36:20;23.80;;;12.10;;
57341;SDS011;43175;51.002;18.316;2022-11-04T11:41:19;21.90;;;12.50;;
57341;SDS011;43175;51.002;18.316;2022-11-04T11:43:51;27.60;;;13.00;;
57341;SDS011;43175;51.002;18.316;2022-11-04T11:46:28;23.60;;;12.10;;
57341;SDS011;43175;51.002;18.316;2022-11-04T11:48:56;23.30;;;12.30;;
57341;SDS011;43175;51.002;18.316;2022-11-04T11:51:26;22.60;;;12.30;;
57341;SDS011;43175;51.002;18.316;2022-11-04T11:56:51;22.30;;;12.00;;
57341;SDS011;43175;51.002;18.316;2022-11-04T11:59:28;23.80;;;13.10;;
57341;SDS011;43175;51.002;18.316;2022-11-04T12:04:41;24.90;;;13.10;;
57341;SDS011;43175;51.002;18.316;2022-11-04T12:10:05;25.60;;;13.90;;
57341;SDS011;43175;51.002;18.316;2022-11-04T12:23:45;23.20;;;13.20;;
57341;SDS011;43175;51.002;18.316;2022-11-04T12:26:17;24.40;;;13.00;;
57341;SDS011;43175;51.002;18.316;2022-11-04T12:36:59;28.20;;;13.90;;
57341;SDS011;43175;51.002;18.316;2022-11-04T12:42:26;23.00;;;13.70;;
57341;SDS011;43175;51.002;18.316;2022-11-04T12:47:46;23.90;;;13.50;;
57341;SDS011;43175;51.002;18.316;2022-11-04T12:58:23;25.70;;;14.50;;
57341;SDS011;43175;51.002;18.316;2022-11-04T13:00:55;25.70;;;14.10;;
57341;SDS011;43175;51.002;18.316;2022-11-04T13:03:26;26.10;;;14.90;;
57341;SDS011;43175;51.002;18.316;2022-11-04T13:05:58;24.70;;;14.20;;
57341;SDS011;43175;51.002;18.316;2022-11-04T13:16:24;23.90;;;14.10;;
57341;SDS011;43175;51.002;18.316;2022-11-04T13:18:50;25.40;;;14.80;;
57341;SDS011;43175;51.002;18.316;2022-11-04T13:21:21;25.40;;;14.90;;
57341;SDS011;43175;51.002;18.316;2022-11-04T13:23:53;27.00;;;16.10;;
57341;SDS011;43175;51.002;18.316;2022-11-04T13:26:23;25.60;;;13.90;;
57341;SDS011;43175;51.002;18.316;2022-11-04T13:28:59;27.10;;;15.30;;
57341;SDS011;43175;51.002;18.316;2022-11-04T13:31:33;23.00;;;14.50;;
57341;SDS011;43175;51.002;18.316;2022-11-04T13:36:46;25.90;;;15.00;;
57341;SDS011;43175;51.002;18.316;2022-11-04T13:39:38;24.70;;;14.20;;
57341;SDS011;43175;51.002;18.316;2022-11-04T13:42:11;23.80;;;15.10;;
57341;SDS011;43175;51.002;18.316;2022-11-04T13:44:57;23.90;;;14.20;;
57341;SDS011;43175;51.002;18.316;2022-11-04T13:47:34;42.60;;;21.50;;
57341;SDS011;43175;51.002;18.316;2022-11-04T13:50:01;101.20;;;38.90;;
57341;SDS011;43175;51.002;18.316;2022-11-04T13:52:29;58.10;;;29.00;;
57341;SDS011;43175;51.002;18.316;2022-11-04T13:54:59;35.70;;;20.20;;
57341;SDS011;43175;51.002;18.316;2022-11-04T13:57:30;33.70;;;18.30;;
57341;SDS011;43175;51.002;18.316;2022-11-04T14:00:18;27.00;;;16.60;;
57341;SDS011;43175;51.002;18.316;2022-11-04T14:02:48;24.70;;;15.10;;
57341;SDS011;43175;51.002;18.316;2022-11-04T14:10:37;24.90;;;14.60;;
57341;SDS011;43175;51.002;18.316;2022-11-04T14:18:50;37.50;;;22.40;;
57341;SDS011;43175;51.002;18.316;2022-11-04T14:21:20;30.90;;;17.50;;
57341;SDS011;43175;51.002;18.316;2022-11-04T14:24:10;31.20;;;17.60;;
57341;SDS011;43175;51.002;18.316;2022-11-04T14:26:40;33.30;;;18.80;;
57341;SDS011;43175;51.002;18.316;2022-11-04T14:29:18;32.90;;;18.50;;
57341;SDS011;43175;51.002;18.316;2022-11-04T14:31:51;33.20;;;18.70;;
57341;SDS011;43175;51.002;18.316;2022-11-04T14:36:55;28.50;;;16.40;;
57341;SDS011;43175;51.002;18.316;2022-11-04T14:39:41;29.40;;;17.10;;
57341;SDS011;43175;51.002;18.316;2022-11-04T14:42:09;29.40;;;17.00;;
57341;SDS011;43175;51.002;18.316;2022-11-04T14:47:16;32.80;;;17.70;;
57341;SDS011;43175;51.002;18.316;2022-11-04T14:50:00;34.90;;;19.90;;
57341;SDS011;43175;51.002;18.316;2022-11-04T14:52:30;32.40;;;18.50;;
57341;SDS011;43175;51.002;18.316;2022-11-04T14:57:34;38.00;;;22.40;;
57341;SDS011;43175;51.002;18.316;2022-11-04T15:03:02;40.30;;;23.30;;
57341;SDS011;43175;51.002;18.316;2022-11-04T15:05:30;42.40;;;27.30;;
57341;SDS011;43175;51.002;18.316;2022-11-04T15:08:01;43.30;;;27.00;;
57341;SDS011;43175;51.002;18.316;2022-11-04T15:10:28;62.50;;;34.40;;
57341;SDS011;43175;51.002;18.316;2022-11-04T15:12:59;116.40;;;55.70;;
57341;SDS011;43175;51.002;18.316;2022-11-04T15:15:33;109.00;;;52.40;;
57341;SDS011;43175;51.002;18.316;2022-11-04T15:18:27;79.40;;;41.50;;
57341;SDS011;43175;51.002;18.316;2022-11-04T15:20:54;146.40;;;67.00;;
57341;SDS011;43175;51.002;18.316;2022-11-04T15:23:28;90.20;;;43.40;;
57341;SDS011;43175;51.002;18.316;2022-11-04T15:25:56;44.70;;;27.40;;
57341;SDS011;43175;51.002;18.316;2022-11-04T15:28:24;42.20;;;26.60;;
57341;SDS011;43175;51.002;18.316;2022-11-04T15:33:55;52.70;;;30.40;;
57341;SDS011;43175;51.002;18.316;2022-11-04T15:36:26;66.90;;;37.00;;
57341;SDS011;43175;51.002;18.316;2022-11-04T15:39:07;134.00;;;56.30;;
57341;SDS011;43175;51.002;18.316;2022-11-04T15:41:36;111.70;;;49.90;;
57341;SDS011;43175;51.002;18.316;2022-11-04T15:44:22;97.30;;;45.30;;
57341;SDS011;43175;51.002;18.316;2022-11-04T15:46:54;133.90;;;58.30;;
57341;SDS011;43175;51.002;18.316;2022-11-04T15:49:25;110.30;;;47.60;;
57341;SDS011;43175;51.002;18.316;2022-11-04T15:51:54;122.40;;;54.80;;
57341;SDS011;43175;51.002;18.316;2022-11-04T15:54:27;71.90;;;38.50;;
57341;SDS011;43175;51.002;18.316;2022-11-04T15:56:55;52.60;;;33.90;;
57341;SDS011;43175;51.002;18.316;2022-11-04T15:59:32;42.40;;;27.00;;
57341;SDS011;43175;51.002;18.316;2022-11-04T16:01:59;35.50;;;22.00;;
57341;SDS011;43175;51.002;18.316;2022-11-04T16:04:26;35.90;;;21.20;;
57341;SDS011;43175;51.002;18.316;2022-11-04T16:07:17;36.10;;;22.20;;
57341;SDS011;43175;51.002;18.316;2022-11-04T16:09:47;36.20;;;22.20;;
57341;SDS011;43175;51.002;18.316;2022-11-04T16:12:16;38.50;;;24.20;;
57341;SDS011;43175;51.002;18.316;2022-11-04T16:14:53;43.20;;;25.60;;
57341;SDS011;43175;51.002;18.316;2022-11-04T16:17:19;41.60;;;26.20;;
57341;SDS011;43175;51.002;18.316;2022-11-04T16:19:47;45.30;;;25.70;;
57341;SDS011;43175;51.002;18.316;2022-11-04T16:22:17;43.20;;;24.20;;
57341;SDS011;43175;51.002;18.316;2022-11-04T16:24:45;39.50;;;23.20;;
57341;SDS011;43175;51.002;18.316;2022-11-04T16:27:12;40.00;;;22.60;;
57341;SDS011;43175;51.002;18.316;2022-11-04T16:29:43;38.40;;;22.60;;
57341;SDS011;43175;51.002;18.316;2022-11-04T16:32:17;41.80;;;23.10;;
57341;SDS011;43175;51.002;18.316;2022-11-04T16:34:48;43.10;;;24.50;;
57341;SDS011;43175;51.002;18.316;2022-11-04T16:37:15;46.10;;;25.20;;
57341;SDS011;43175;51.002;18.316;2022-11-04T16:39:42;47.50;;;25.20;;